createdAt,value
2018-06-25T00:01:44.516Z,15.55
2018-06-25T00:04:17.420Z,15.44
2018-06-25T00:06:50.370Z,15.58
2018-06-25T00:09:21.698Z,15.46
2018-06-25T00:11:53.018Z,15.64
2018-06-25T00:14:26.042Z,15.46
2018-06-25T00:16:59.249Z,15.46
2018-06-25T00:19:32.177Z,15.56
2018-06-25T00:22:05.405Z,15.49
2018-06-25T00:24:39.092Z,15.41
2018-06-25T00:27:12.228Z,15.26
2018-06-25T00:29:46.731Z,15.22
2018-06-25T00:32:19.617Z,15.24
2018-06-25T00:34:52.934Z,15.39
2018-06-25T00:37:26.952Z,15.41
2018-06-25T00:39:56.810Z,15.60
2018-06-25T00:42:29.537Z,15.41
2018-06-25T00:45:02.416Z,15.52
2018-06-25T00:47:33.794Z,15.57
2018-06-25T00:50:05.563Z,15.56
2018-06-25T00:52:36.704Z,15.66
2018-06-25T00:55:08.066Z,15.64
2018-06-25T00:57:39.429Z,15.64
2018-06-25T01:00:12.400Z,15.58
2018-06-25T01:02:43.787Z,15.68
2018-06-25T01:05:15.288Z,15.62
2018-06-25T01:07:46.670Z,15.62
2018-06-25T01:10:21.784Z,15.66
2018-06-25T01:12:54.771Z,15.63
2018-06-25T01:15:25.894Z,15.64
2018-06-25T01:17:57.177Z,15.65
2018-06-25T01:20:30.400Z,15.63
2018-06-25T01:23:02.687Z,15.62
2018-06-25T01:25:32.554Z,15.56
2018-06-25T01:28:06.869Z,15.61
2018-06-25T01:30:39.688Z,15.55
2018-06-25T01:33:11.831Z,15.65
2018-06-25T01:35:45.619Z,15.53
2018-06-25T01:38:18.696Z,15.68
2018-06-25T01:40:50.091Z,15.77
2018-06-25T01:43:21.482Z,15.64
2018-06-25T01:45:55.793Z,15.78
2018-06-25T01:48:28.687Z,15.69
2018-06-25T01:51:01.521Z,15.66
2018-06-25T01:53:34.466Z,15.59
2018-06-25T01:56:05.726Z,15.58
2018-06-25T01:58:38.813Z,15.56
2018-06-25T02:01:10.633Z,15.70
2018-06-25T02:03:44.928Z,15.57
2018-06-25T02:06:19.246Z,15.62
2018-06-25T02:08:53.699Z,15.70
2018-06-25T02:11:26.506Z,15.82
2018-06-25T02:13:59.285Z,15.71
2018-06-25T02:16:33.586Z,15.85
2018-06-25T02:19:07.919Z,15.78
2018-06-25T02:21:42.191Z,15.79
2018-06-25T02:24:15.430Z,15.86
2018-06-25T02:26:48.181Z,15.92
2018-06-25T02:29:21.310Z,15.84
2018-06-25T02:31:55.648Z,15.76
2018-06-25T02:34:26.593Z,15.83
2018-06-25T02:36:59.362Z,15.87
2018-06-25T02:39:32.820Z,15.76
2018-06-25T02:42:04.865Z,15.97
2018-06-25T02:44:37.989Z,16.01
2018-06-25T02:47:10.721Z,16.00
2018-06-25T02:49:42.348Z,15.98
2018-06-25T02:52:14.672Z,15.95
2018-06-25T02:54:46.719Z,16.01
2018-06-25T02:57:20.014Z,16.03
2018-06-25T02:59:51.730Z,16.04
2018-06-25T03:02:24.663Z,16.07
2018-06-25T03:04:59.048Z,15.93
2018-06-25T03:07:32.047Z,15.96
2018-06-25T03:10:04.080Z,15.92
2018-06-25T03:12:33.833Z,15.94
2018-06-25T03:15:05.983Z,15.83
2018-06-25T03:17:37.435Z,15.79
2018-06-25T03:20:08.119Z,15.86
2018-06-25T03:22:40.854Z,15.82
2018-06-25T03:25:12.479Z,15.63
2018-06-25T03:27:45.997Z,15.85
2018-06-25T03:30:18.865Z,15.82
2018-06-25T03:32:52.559Z,15.76
2018-06-25T03:35:23.985Z,15.76
2018-06-25T03:37:57.041Z,15.75
2018-06-25T03:40:28.399Z,15.62
2018-06-25T03:43:01.174Z,15.75
2018-06-25T03:45:33.839Z,15.66
2018-06-25T03:48:06.033Z,15.85
2018-06-25T03:50:39.196Z,15.82
2018-06-25T03:53:13.519Z,15.92
2018-06-25T03:55:46.298Z,15.96
2018-06-25T03:58:15.585Z,15.82
2018-06-25T04:00:48.366Z,15.87
2018-06-25T04:03:20.117Z,15.98
2018-06-25T04:05:51.426Z,15.95
2018-06-25T04:08:24.810Z,15.98
2018-06-25T04:10:54.828Z,15.97
2018-06-25T04:13:26.850Z,15.81
2018-06-25T04:15:59.022Z,15.59
2018-06-25T04:18:33.174Z,15.75
2018-06-25T04:21:05.986Z,15.79
2018-06-25T04:23:35.875Z,15.85
2018-06-25T04:26:07.931Z,16.02
2018-06-25T04:28:42.293Z,16.00
2018-06-25T04:31:16.610Z,16.07
2018-06-25T04:33:47.401Z,16.04
2018-06-25T04:36:20.290Z,16.00
2018-06-25T04:38:50.118Z,15.88
2018-06-25T04:41:23.241Z,16.11
2018-06-25T04:43:55.712Z,15.90
2018-06-25T04:46:29.245Z,15.96
2018-06-25T04:49:03.534Z,16.20
2018-06-25T04:51:36.471Z,16.44
2018-06-25T04:54:09.897Z,16.22
2018-06-25T04:56:41.281Z,16.37
2018-06-25T04:59:14.045Z,16.47
2018-06-25T05:01:45.444Z,16.52
2018-06-25T05:04:19.829Z,16.47
2018-06-25T05:06:52.631Z,16.49
2018-06-25T05:09:25.403Z,16.42
2018-06-25T05:11:58.253Z,16.67
2018-06-25T05:14:29.593Z,16.69
2018-06-25T05:17:02.563Z,16.67
2018-06-25T05:19:35.380Z,16.65
2018-06-25T05:22:09.690Z,16.88
2018-06-25T05:24:40.442Z,17.02
2018-06-25T05:27:11.816Z,16.92
2018-06-25T05:29:44.409Z,16.75
2018-06-25T05:32:17.301Z,16.84
2018-06-25T05:34:50.206Z,17.03
2018-06-25T05:37:22.269Z,16.74
2018-06-25T05:39:55.210Z,16.74
2018-06-25T05:42:27.956Z,16.66
2018-06-25T05:45:00.796Z,16.90
2018-06-25T05:47:29.940Z,16.99
2018-06-25T05:50:04.258Z,17.00
2018-06-25T05:52:35.581Z,16.96
2018-06-25T05:55:08.493Z,16.98
2018-06-25T05:57:41.360Z,17.10
2018-06-25T06:00:14.540Z,17.14
2018-06-25T06:02:46.600Z,17.16
2018-06-25T06:05:21.218Z,17.25
2018-06-25T06:07:52.572Z,17.11
2018-06-25T06:10:26.187Z,17.00
2018-06-25T06:12:59.230Z,17.00
2018-06-25T06:15:33.834Z,17.20
2018-06-25T06:18:05.125Z,17.26
2018-06-25T06:20:37.903Z,17.29
2018-06-25T06:23:11.209Z,17.19
2018-06-25T06:25:43.939Z,17.29
2018-06-25T06:28:18.448Z,17.41
2018-06-25T06:30:51.566Z,17.13
2018-06-25T06:33:22.169Z,17.28
2018-06-25T06:35:54.981Z,17.24
2018-06-25T06:38:25.628Z,17.34
2018-06-25T06:40:58.605Z,17.63
2018-06-25T06:43:30.186Z,17.71
2018-06-25T06:46:03.121Z,17.68
2018-06-25T06:48:35.963Z,17.72
2018-06-25T06:51:09.654Z,17.74
2018-06-25T06:53:41.792Z,18.00
2018-06-25T06:56:14.648Z,18.07
2018-06-25T06:58:48.938Z,17.80
2018-06-25T07:01:21.823Z,17.81
2018-06-25T07:03:54.144Z,18.02
2018-06-25T07:06:28.518Z,18.02
2018-06-25T07:09:02.800Z,18.40
2018-06-25T07:11:34.866Z,17.86
2018-06-25T07:14:13.785Z,18.12
2018-06-25T07:16:46.664Z,18.03
2018-06-25T07:19:16.605Z,17.94
2018-06-25T07:21:49.398Z,17.75
2018-06-25T07:24:23.684Z,18.10
2018-06-25T07:26:55.173Z,18.04
2018-06-25T07:29:25.017Z,17.98
2018-06-25T07:31:57.050Z,17.80
2018-06-25T07:34:31.658Z,17.93
2018-06-25T07:37:04.505Z,18.04
2018-06-25T07:39:39.220Z,17.90
2018-06-25T07:42:12.026Z,17.93
2018-06-25T07:44:44.890Z,17.98
2018-06-25T07:47:19.145Z,18.00
2018-06-25T07:49:49.676Z,18.26
2018-06-25T07:52:22.562Z,18.17
2018-06-25T07:54:56.902Z,18.25
2018-06-25T07:57:29.591Z,18.34
2018-06-25T08:00:02.647Z,18.21
2018-06-25T08:02:35.430Z,18.02
2018-06-25T08:05:09.113Z,18.57
2018-06-25T08:07:40.500Z,18.65
2018-06-25T08:10:14.807Z,18.34
2018-06-25T08:12:48.196Z,18.43
2018-06-25T08:15:20.994Z,18.17
2018-06-25T08:17:51.859Z,18.76
2018-06-25T08:20:24.733Z,18.95
2018-06-25T08:22:56.468Z,19.20
2018-06-25T08:25:27.867Z,19.61
2018-06-25T08:28:03.413Z,20.29
2018-06-25T08:30:35.536Z,20.19
2018-06-25T08:33:07.124Z,20.58
2018-06-25T08:35:38.946Z,20.55
2018-06-25T08:38:12.644Z,20.44
2018-06-25T08:40:47.199Z,19.69
2018-06-25T08:43:19.968Z,20.34
2018-06-25T08:45:51.509Z,20.48
2018-06-25T08:48:20.461Z,20.61
2018-06-25T08:50:51.427Z,20.53
2018-06-25T08:53:23.627Z,20.21
2018-06-25T08:55:56.711Z,20.34
2018-06-25T08:58:30.932Z,19.86
2018-06-25T09:01:04.916Z,19.94
2018-06-25T09:03:38.268Z,19.57
2018-06-25T09:06:12.867Z,19.49
2018-06-25T09:08:45.861Z,19.69
2018-06-25T09:11:20.280Z,20.10
2018-06-25T09:13:53.183Z,20.24
2018-06-25T09:16:24.499Z,20.37
2018-06-25T09:18:56.412Z,20.73
2018-06-25T09:21:27.867Z,20.63
2018-06-25T09:23:57.807Z,21.26
2018-06-25T09:26:29.260Z,20.87
2018-06-25T09:29:03.645Z,21.13
2018-06-25T09:31:32.821Z,21.46
2018-06-25T09:34:23.482Z,20.78
2018-06-25T09:36:54.910Z,20.48
2018-06-25T09:39:29.799Z,20.59
2018-06-25T09:42:02.861Z,20.79
2018-06-25T09:44:36.679Z,21.01
2018-06-25T09:47:08.191Z,21.12
2018-06-25T09:49:41.254Z,21.32
2018-06-25T09:52:14.000Z,21.27
2018-06-25T09:54:45.157Z,21.34
2018-06-25T09:57:15.759Z,21.34
2018-06-25T09:59:49.376Z,21.25
2018-06-25T10:02:22.326Z,21.27
2018-06-25T10:04:54.910Z,21.59
2018-06-25T10:07:27.826Z,21.92
2018-06-25T10:09:57.693Z,21.86
2018-06-25T10:12:30.712Z,21.78
2018-06-25T10:15:00.613Z,21.20
2018-06-25T10:17:35.202Z,21.60
2018-06-25T10:20:08.093Z,21.21
2018-06-25T10:22:40.269Z,21.00
2018-06-25T10:25:13.074Z,20.94
2018-06-25T10:27:46.062Z,21.96
2018-06-25T10:30:19.051Z,22.94
2018-06-25T10:32:50.403Z,23.62
2018-06-25T10:35:23.797Z,23.25
2018-06-25T10:37:56.524Z,23.02
2018-06-25T10:40:28.006Z,24.31
2018-06-25T10:43:00.913Z,24.62
2018-06-25T10:45:33.718Z,24.35
2018-06-25T10:48:08.097Z,23.64
2018-06-25T10:50:42.292Z,24.37
2018-06-25T10:53:15.094Z,24.08
2018-06-25T10:55:45.002Z,23.28
2018-06-25T10:58:19.039Z,21.99
2018-06-25T11:00:52.092Z,22.99
2018-06-25T11:03:23.251Z,23.94
2018-06-25T11:05:56.356Z,25.36
2018-06-25T11:08:27.900Z,24.14
2018-06-25T11:11:00.862Z,24.42
2018-06-25T11:13:30.751Z,23.63
2018-06-25T11:16:04.293Z,25.37
2018-06-25T11:18:37.732Z,24.31
2018-06-25T11:21:09.823Z,25.35
2018-06-25T11:23:42.746Z,26.22
2018-06-25T11:26:16.544Z,25.40
2018-06-25T11:28:49.628Z,25.15
2018-06-25T11:31:22.543Z,24.56
2018-06-25T11:33:56.161Z,24.02
2018-06-25T11:36:29.133Z,23.28
2018-06-25T11:39:02.151Z,23.86
2018-06-25T11:41:36.513Z,23.78
2018-06-25T11:44:09.437Z,23.94
2018-06-25T11:46:42.448Z,24.63
2018-06-25T11:49:16.904Z,25.14
2018-06-25T11:51:51.531Z,25.11
2018-06-25T11:54:21.432Z,24.11
2018-06-25T11:56:55.885Z,22.91
2018-06-25T11:59:29.226Z,24.15
2018-06-25T12:02:03.109Z,24.11
2018-06-25T12:04:32.994Z,24.76
2018-06-25T12:07:05.278Z,24.55
2018-06-25T12:09:38.659Z,24.51
2018-06-25T12:12:09.316Z,24.44
2018-06-25T12:14:43.834Z,23.71
2018-06-25T12:17:16.879Z,23.10
2018-06-25T12:19:49.291Z,22.81
2018-06-25T12:22:20.714Z,23.80
2018-06-25T12:24:54.267Z,24.61
2018-06-25T12:27:28.581Z,25.12
2018-06-25T12:30:02.982Z,24.68
2018-06-25T12:32:36.496Z,24.23
2018-06-25T12:35:08.622Z,24.05
2018-06-25T12:37:41.302Z,24.50
2018-06-25T12:40:14.227Z,25.39
2018-06-25T12:42:47.333Z,25.03
2018-06-25T12:45:21.267Z,24.59
2018-06-25T12:47:53.739Z,24.08
2018-06-25T12:50:27.048Z,24.29
2018-06-25T12:52:59.241Z,24.70
2018-06-25T12:55:32.602Z,24.13
2018-06-25T12:58:07.062Z,23.78
2018-06-25T13:00:39.936Z,23.92
2018-06-25T13:03:14.759Z,23.59
2018-06-25T13:05:47.490Z,23.12
2018-06-25T13:08:21.090Z,23.47
2018-06-25T13:10:53.936Z,24.55
2018-06-25T13:13:27.294Z,23.73
2018-06-25T13:16:00.395Z,24.39
2018-06-25T13:18:33.199Z,24.30
2018-06-25T13:21:07.559Z,24.22
2018-06-25T13:23:40.061Z,24.21
2018-06-25T13:26:14.382Z,23.94
2018-06-25T13:28:47.147Z,23.86
2018-06-25T13:31:20.222Z,23.59
2018-06-25T13:33:53.787Z,23.49
2018-06-25T13:36:25.200Z,23.66
2018-06-25T13:38:58.237Z,24.47
2018-06-25T13:41:31.603Z,24.43
2018-06-25T13:44:05.950Z,24.29
2018-06-25T13:46:37.596Z,24.03
2018-06-25T13:49:09.117Z,23.84
2018-06-25T13:51:40.531Z,24.32
2018-06-25T13:54:13.446Z,24.09
2018-06-25T13:56:46.324Z,24.05
2018-06-25T13:59:20.727Z,24.24
2018-06-25T14:01:54.244Z,23.79
2018-06-25T14:04:29.009Z,23.24
2018-06-25T14:06:58.924Z,23.11
2018-06-25T14:09:31.844Z,23.31
2018-06-25T14:12:06.591Z,23.18
2018-06-25T14:14:41.022Z,22.83
2018-06-25T14:17:15.453Z,23.04
2018-06-25T14:19:49.340Z,23.29
2018-06-25T14:22:22.189Z,23.31
2018-06-25T14:25:03.582Z,23.00
2018-06-25T14:27:52.554Z,22.75
2018-06-25T14:30:41.699Z,22.75
2018-06-25T14:33:17.512Z,22.82
2018-06-25T14:35:51.263Z,22.79
2018-06-25T14:38:24.955Z,22.77
2018-06-25T14:40:55.385Z,23.06
2018-06-25T14:43:26.656Z,23.12
2018-06-25T14:45:56.613Z,23.21
2018-06-25T14:48:30.588Z,22.96
2018-06-25T14:51:01.948Z,22.80
2018-06-25T14:53:35.506Z,22.77
2018-06-25T14:56:05.560Z,22.68
2018-06-25T14:58:39.880Z,22.83
2018-06-25T15:01:11.793Z,22.78
2018-06-25T15:03:46.666Z,22.67
2018-06-25T15:06:20.200Z,22.61
2018-06-25T15:08:52.128Z,22.75
2018-06-25T15:11:25.490Z,22.90
2018-06-25T15:13:58.058Z,22.81
2018-06-25T15:16:29.956Z,22.63
2018-06-25T15:19:02.728Z,22.64
2018-06-25T15:21:34.865Z,22.67
2018-06-25T15:24:08.549Z,22.59
2018-06-25T15:26:38.364Z,22.72
2018-06-25T15:29:11.105Z,22.51
2018-06-25T15:31:43.924Z,22.67
2018-06-25T15:34:15.348Z,22.76
2018-06-25T15:36:49.055Z,22.77
2018-06-25T15:39:20.499Z,22.81
2018-06-25T15:41:49.928Z,22.51
2018-06-25T15:44:24.139Z,22.87
2018-06-25T15:46:58.451Z,22.62
2018-06-25T15:49:28.264Z,22.63
2018-06-25T15:51:58.286Z,22.87
2018-06-25T15:54:31.451Z,22.40
2018-06-25T15:57:05.762Z,22.39
2018-06-25T15:59:40.101Z,22.55
2018-06-25T16:02:10.041Z,22.72
2018-06-25T16:04:41.414Z,22.62
2018-06-25T16:07:12.940Z,22.46
2018-06-25T16:09:47.285Z,22.52
2018-06-25T16:12:21.480Z,22.41
2018-06-25T16:14:55.853Z,22.32
2018-06-25T16:17:28.898Z,22.21
2018-06-25T16:19:59.879Z,22.27
2018-06-25T16:22:29.715Z,22.20
2018-06-25T16:25:04.301Z,22.22
2018-06-25T16:27:38.127Z,22.17
2018-06-25T16:30:11.617Z,22.07
2018-06-25T16:32:43.010Z,21.96
2018-06-25T16:35:14.546Z,22.08
2018-06-25T16:37:45.418Z,22.03
2018-06-25T16:40:19.892Z,21.92
2018-06-25T16:42:53.579Z,21.79
2018-06-25T16:45:22.881Z,21.89
2018-06-25T16:47:54.719Z,21.78
2018-06-25T16:50:28.518Z,21.61
2018-06-25T16:53:00.054Z,21.60
2018-06-25T16:55:34.715Z,21.56
2018-06-25T16:58:06.276Z,21.68
2018-06-25T17:00:40.544Z,21.51
2018-06-25T17:03:13.993Z,21.70
2018-06-25T17:05:46.049Z,21.33
2018-06-25T17:08:18.857Z,21.67
2018-06-25T17:10:52.117Z,21.48
2018-06-25T17:13:25.658Z,21.46
2018-06-25T17:15:58.557Z,21.28
2018-06-25T17:18:29.976Z,21.50
2018-06-25T17:21:02.815Z,21.56
2018-06-25T17:23:34.282Z,21.37
2018-06-25T17:26:08.546Z,21.04
2018-06-25T17:28:42.779Z,21.04
2018-06-25T17:31:14.314Z,21.15
2018-06-25T17:33:47.432Z,21.20
2018-06-25T17:36:18.813Z,20.65
2018-06-25T17:38:53.271Z,20.80
2018-06-25T17:41:26.084Z,20.46
2018-06-25T17:43:59.637Z,20.55
2018-06-25T17:46:30.979Z,20.59
2018-06-25T17:49:04.311Z,20.61
2018-06-25T17:51:36.284Z,20.57
2018-06-25T17:54:11.007Z,20.51
2018-06-25T17:56:42.355Z,20.66
2018-06-25T17:59:13.744Z,20.53
2018-06-25T18:01:46.681Z,20.52
2018-06-25T18:04:20.070Z,20.44
2018-06-25T18:06:53.290Z,20.25
2018-06-25T18:09:24.734Z,20.15
2018-06-25T18:11:59.347Z,20.21
2018-06-25T18:14:29.264Z,20.18
2018-06-25T18:17:02.185Z,20.14
2018-06-25T18:19:35.136Z,19.90
2018-06-25T18:22:06.483Z,19.83
2018-06-25T18:24:38.590Z,19.59
2018-06-25T18:27:11.903Z,19.73
2018-06-25T18:29:44.794Z,19.52
2018-06-25T18:32:17.661Z,19.44
2018-06-25T18:34:50.108Z,19.32
2018-06-25T18:37:23.221Z,19.19
2018-06-25T18:39:56.303Z,19.12
2018-06-25T18:42:29.417Z,18.96
2018-06-25T18:45:04.013Z,18.81
2018-06-25T18:47:37.350Z,18.75
2018-06-25T18:50:09.560Z,18.85
2018-06-25T18:52:41.010Z,18.78
2018-06-25T18:55:11.971Z,18.62
2018-06-25T18:57:42.944Z,18.63
2018-06-25T19:00:17.301Z,18.73
2018-06-25T19:02:50.494Z,18.58
2018-06-25T19:05:23.470Z,18.34
2018-06-25T19:07:57.936Z,18.34
2018-06-25T19:10:32.862Z,18.36
2018-06-25T19:13:05.920Z,18.31
2018-06-25T19:15:35.148Z,18.03
2018-06-25T19:18:07.806Z,18.04
2018-06-25T19:20:40.939Z,17.95
2018-06-25T19:23:12.340Z,17.90
2018-06-25T19:25:47.593Z,17.94
2018-06-25T19:28:20.582Z,17.85
2018-06-25T19:30:53.571Z,17.71
2018-06-25T19:33:25.019Z,17.56
2018-06-25T19:35:57.029Z,17.59
2018-06-25T19:38:32.981Z,17.39
2018-06-25T19:41:04.780Z,17.34
2018-06-25T19:43:36.955Z,17.24
2018-06-25T19:46:09.929Z,17.29
2018-06-25T19:48:42.887Z,17.17
2018-06-25T19:51:15.823Z,17.09
2018-06-25T19:53:50.812Z,17.07
2018-06-25T19:56:25.246Z,16.94
2018-06-25T19:58:55.966Z,16.71
2018-06-25T20:01:29.090Z,16.76
2018-06-25T20:04:03.605Z,16.66
2018-06-25T20:06:36.583Z,16.58
2018-06-25T20:09:13.969Z,16.58
2018-06-25T20:11:46.942Z,16.43
2018-06-25T20:14:16.878Z,16.43
2018-06-25T20:16:50.038Z,16.33
2018-06-25T20:19:21.441Z,16.31
2018-06-25T20:21:54.476Z,16.20
2018-06-25T20:24:25.933Z,16.20
2018-06-25T20:26:58.996Z,16.07
2018-06-25T20:29:31.883Z,16.12
2018-06-25T20:32:03.600Z,16.03
2018-06-25T20:34:38.075Z,15.94
2018-06-25T20:37:12.000Z,15.89
2018-06-25T20:39:46.885Z,15.85
2018-06-25T20:42:19.874Z,15.82
2018-06-25T20:44:53.042Z,15.85
2018-06-25T20:47:24.275Z,15.77
2018-06-25T20:49:59.084Z,15.57
2018-06-25T20:52:31.268Z,15.67
2018-06-25T20:55:02.775Z,15.53
2018-06-25T20:57:36.474Z,15.55
2018-06-25T21:00:08.088Z,15.48
2018-06-25T21:02:39.505Z,15.50
2018-06-25T21:05:13.014Z,15.52
2018-06-25T21:07:47.442Z,15.45
2018-06-25T21:10:20.581Z,15.44
2018-06-25T21:12:52.171Z,15.39
2018-06-25T21:15:25.554Z,15.32
2018-06-25T21:17:57.988Z,15.29
2018-06-25T21:20:29.653Z,15.32
2018-06-25T21:23:02.571Z,15.23
2018-06-25T21:25:35.916Z,15.17
2018-06-25T21:28:08.486Z,15.12
2018-06-25T21:30:40.015Z,15.08
2018-06-25T21:33:13.921Z,15.09
2018-06-25T21:35:48.562Z,14.97
2018-06-25T21:38:20.897Z,14.91
2018-06-25T21:40:54.135Z,14.95
2018-06-25T21:43:27.004Z,14.88
2018-06-25T21:46:00.278Z,14.84
2018-06-25T21:48:32.962Z,14.79
2018-06-25T21:51:04.339Z,14.72
2018-06-25T21:53:39.036Z,14.68
2018-06-25T21:56:13.802Z,14.54
2018-06-25T21:58:46.788Z,14.51
2018-06-25T22:01:16.982Z,14.55
2018-06-25T22:03:50.294Z,14.45
2018-06-25T22:06:22.233Z,14.35
2018-06-25T22:08:55.249Z,14.22
2018-06-25T22:11:28.465Z,14.14
2018-06-25T22:14:00.043Z,14.11
2018-06-25T22:16:30.015Z,14.04
2018-06-25T22:19:03.369Z,14.04
2018-06-25T22:21:33.326Z,13.91
2018-06-25T22:24:06.497Z,13.89
2018-06-25T22:26:41.134Z,13.93
2018-06-25T22:29:11.190Z,13.94
2018-06-25T22:31:44.212Z,13.90
2018-06-25T22:34:15.163Z,13.88
2018-06-25T22:36:46.570Z,13.94
2018-06-25T22:39:21.173Z,13.93
2018-06-25T22:41:54.633Z,13.88
2018-06-25T22:44:26.115Z,13.79
2018-06-25T22:46:59.372Z,13.91
2018-06-25T22:49:32.451Z,13.91
2018-06-25T22:52:04.098Z,13.94
2018-06-25T22:54:35.708Z,13.82
2018-06-25T22:57:07.299Z,13.83
2018-06-25T22:59:38.284Z,13.70
2018-06-25T23:02:12.423Z,13.76
2018-06-25T23:04:45.995Z,13.65
2018-06-25T23:07:17.736Z,13.52
2018-06-25T23:09:50.991Z,13.56
2018-06-25T23:12:25.902Z,13.48
2018-06-25T23:14:59.012Z,13.36
2018-06-25T23:17:32.472Z,13.40
2018-06-25T23:20:02.295Z,13.33
2018-06-25T23:22:34.236Z,13.36
2018-06-25T23:25:07.748Z,13.32
2018-06-25T23:27:40.695Z,13.32
2018-06-25T23:30:15.207Z,13.31
2018-06-25T23:32:47.063Z,13.27
2018-06-25T23:35:20.484Z,13.34
2018-06-25T23:37:52.658Z,13.28
2018-06-25T23:40:22.858Z,13.25
2018-06-25T23:42:54.547Z,13.27
2018-06-25T23:45:27.682Z,13.26
2018-06-25T23:47:59.493Z,13.23
2018-06-25T23:50:30.972Z,13.21
2018-06-25T23:53:04.306Z,13.12
2018-06-25T23:55:37.386Z,13.00
2018-06-25T23:58:10.430Z,13.06
